Time;durP1;ratioP1;P1;durP2;ratioP2;P2;SDS_P1;SDS_P2;PMS_P1;PMS_P2;Temp;Humidity;BMP_temperature;BMP_pressure;BME280_temperature;BME280_humidity;BME280_pressure;Samples;Min_cycle;Max_cycle;Signal;HPM_P1;HPM_P2
2022/05/15 00:01:47;;;;;;;2.17;0.80;;;;;;;11.50;100.00;101104.34;5138596;27;20149;-47
2022/05/15 00:04:13;;;;;;;2.80;0.43;;;;;;;11.32;100.00;101099.38;5146089;27;20110;-48
2022/05/15 00:06:38;;;;;;;3.53;1.85;;;;;;;11.20;100.00;101103.47;5148643;27;20026;-47
2022/05/15 00:09:04;;;;;;;6.55;0.60;;;;;;;11.18;100.00;101105.47;5149002;27;20594;-46
2022/05/15 00:11:29;;;;;;;3.05;0.60;;;;;;;11.14;100.00;101097.06;5144253;27;20031;-48
2022/05/15 00:13:57;;;;;;;4.25;0.60;;;;;;;11.05;100.00;101100.78;5146820;27;20037;-46
2022/05/15 00:16:23;;;;;;;2.05;0.43;;;;;;;10.97;100.00;101103.50;5150328;27;20407;-47
2022/05/15 00:18:50;;;;;;;4.18;1.40;;;;;;;10.94;100.00;101102.03;5149801;27;20415;-48
2022/05/15 00:21:15;;;;;;;3.22;0.88;;;;;;;10.91;100.00;101099.72;5124312;27;20023;-47
2022/05/15 00:23:41;;;;;;;5.35;0.52;;;;;;;10.94;100.00;101098.53;5147257;27;20026;-51
2022/05/15 00:26:06;;;;;;;6.18;0.95;;;;;;;10.96;100.00;101094.72;5131740;27;20022;-49
2022/05/15 00:28:32;;;;;;;3.58;0.95;;;;;;;11.02;100.00;101087.88;5140124;27;20030;-46
2022/05/15 00:30:57;;;;;;;2.58;0.88;;;;;;;11.02;100.00;101083.41;5144353;27;20432;-47
2022/05/15 00:33:23;;;;;;;3.80;0.82;;;;;;;11.04;100.00;101086.69;5145101;27;20038;-47
2022/05/15 00:35:48;;;;;;;5.10;1.25;;;;;;;11.07;100.00;101082.84;5142331;27;20051;-49
2022/05/15 00:38:14;;;;;;;6.50;1.30;;;;;;;11.05;100.00;101091.00;5148122;27;20031;-47
2022/05/15 00:40:42;;;;;;;2.03;0.70;;;;;;;11.07;100.00;101082.84;5141933;27;20093;-50
2022/05/15 00:43:12;;;;;;;3.33;0.93;;;;;;;11.10;100.00;101074.50;5124812;27;20392;-49
2022/05/15 00:45:38;;;;;;;7.18;1.23;;;;;;;11.13;100.00;101077.66;5147233;27;20026;-46
2022/05/15 00:48:04;;;;;;;3.47;1.48;;;;;;;11.17;100.00;101079.94;5149137;27;20022;-45
2022/05/15 00:50:32;;;;;;;4.25;1.98;;;;;;;11.17;100.00;101079.94;5145204;27;20023;-47
2022/05/15 00:53:04;;;;;;;1.83;0.60;;;;;;;11.18;100.00;101093.06;5140141;27;20052;-48
2022/05/15 00:55:55;;;;;;;7.03;2.30;;;;;;;11.20;100.00;101098.97;5145195;27;20030;-49
2022/05/15 00:58:31;;;;;;;4.55;0.68;;;;;;;11.20;100.00;101114.09;5134308;27;20130;-49
2022/05/15 01:00:57;;;;;;;5.28;2.42;;;;;;;11.18;100.00;101108.97;5145171;27;20026;-50
2022/05/15 01:03:23;;;;;;;23.73;12.82;;;;;;;11.18;100.00;101105.47;5144568;27;20035;-46
2022/05/15 01:05:53;;;;;;;35.10;18.20;;;;;;;11.21;100.00;101095.34;5141986;27;20037;-45
2022/05/15 01:08:20;;;;;;;22.98;12.65;;;;;;;11.20;100.00;101103.47;5145080;27;20475;-47
2022/05/15 01:10:50;;;;;;;8.18;5.57;;;;;;;11.16;100.00;101110.97;5146922;27;20026;-49
2022/05/15 01:13:17;;;;;;;7.68;3.15;;;;;;;11.19;100.00;101099.19;5134049;27;20112;-47
2022/05/15 01:15:44;;;;;;;5.47;2.50;;;;;;;11.11;100.00;101105.38;5138474;27;20046;-45
2022/05/15 01:18:10;;;;;;;4.63;2.03;;;;;;;11.05;100.00;101092.84;5145120;27;20050;-47
2022/05/15 01:20:37;;;;;;;4.05;1.33;;;;;;;11.01;100.00;101080.91;5148337;27;20062;-46
2022/05/15 01:23:02;;;;;;;2.70;1.10;;;;;;;10.99;100.00;101088.22;5127572;27;20027;-52
2022/05/15 01:25:36;;;;;;;1.70;0.60;;;;;;;11.04;100.00;101085.88;5144880;27;20057;-45
2022/05/15 01:28:05;;;;;;;5.40;1.13;;;;;;;11.10;100.00;101071.88;5136985;27;20019;-46
2022/05/15 01:30:32;;;;;;;4.00;1.15;;;;;;;11.08;100.00;101069.41;5147594;27;20033;-48
2022/05/15 01:32:57;;;;;;;7.10;1.05;;;;;;;11.02;100.00;101059.53;5139961;27;20027;-46
2022/05/15 01:35:23;;;;;;;9.60;2.55;;;;;;;11.02;100.00;101061.31;5144741;27;20039;-46
2022/05/15 01:37:49;;;;;;;2.13;0.93;;;;;;;10.96;100.00;101073.50;5147300;27;20027;-49
2022/05/15 01:40:15;;;;;;;3.15;1.00;;;;;;;10.96;100.00;101076.13;5146049;27;20037;-46
2022/05/15 01:42:41;;;;;;;2.10;0.80;;;;;;;10.99;100.00;101067.81;5145140;27;20038;-48
2022/05/15 01:45:08;;;;;;;1.95;1.73;;;;;;;11.07;100.00;101070.41;5127711;27;20033;-49
2022/05/15 01:47:34;;;;;;;10.18;2.33;;;;;;;11.16;100.00;101071.16;5142642;27;20027;-46
2022/05/15 01:50:00;;;;;;;2.78;1.45;;;;;;;11.33;100.00;101074.47;5146559;27;20034;-46
2022/05/15 01:52:26;;;;;;;4.18;0.60;;;;;;;11.53;100.00;101067.63;5149913;27;20054;-53
2022/05/15 01:54:52;;;;;;;2.10;0.68;;;;;;;11.66;100.00;101066.97;5147228;27;20030;-45
2022/05/15 01:57:17;;;;;;;3.88;0.75;;;;;;;11.64;100.00;101071.69;5144430;27;20031;-47
2022/05/15 01:59:43;;;;;;;5.22;1.65;;;;;;;11.66;100.00;101068.81;5147457;27;20047;-46
2022/05/15 02:02:08;;;;;;;6.25;1.10;;;;;;;11.71;100.00;101061.13;5149223;27;20063;-46
2022/05/15 02:04:34;;;;;;;1.85;0.50;;;;;;;11.83;100.00;101066.81;5147494;27;20029;-46
2022/05/15 02:06:59;;;;;;;3.03;1.02;;;;;;;11.91;100.00;101059.56;5144075;27;20122;-47
2022/05/15 02:09:25;;;;;;;7.88;1.35;;;;;;;11.98;100.00;101063.16;5143137;27;20407;-50
2022/05/15 02:11:50;;;;;;;4.40;1.38;;;;;;;12.03;100.00;101056.44;5146293;27;20074;-45
2022/05/15 02:14:15;;;;;;;6.80;1.15;;;;;;;12.07;100.00;101055.06;5147998;27;20059;-46
2022/05/15 02:16:41;;;;;;;6.90;1.52;;;;;;;12.08;100.00;101059.34;5129712;27;20079;-52
2022/05/15 02:19:06;;;;;;;3.55;0.75;;;;;;;12.14;100.00;101063.94;5143793;27;20033;-52
2022/05/15 02:21:32;;;;;;;7.00;1.95;;;;;;;12.12;100.00;101063.28;5130938;27;20031;-48
2022/05/15 02:23:57;;;;;;;8.75;1.40;;;;;;;12.02;100.00;101062.78;5137336;27;20031;-49
2022/05/15 02:26:23;;;;;;;4.35;1.80;;;;;;;11.93;100.00;101068.19;5145308;27;20076;-49
2022/05/15 02:28:50;;;;;;;6.72;1.30;;;;;;;11.88;100.00;101077.72;5144120;27;20079;-49
2022/05/15 02:31:16;;;;;;;11.00;5.88;;;;;;;11.84;100.00;101087.84;5144276;27;20035;-52
2022/05/15 02:33:41;;;;;;;7.47;4.78;;;;;;;11.81;100.00;101088.22;5146875;27;20341;-49
2022/05/15 02:36:07;;;;;;;11.50;3.03;;;;;;;11.77;100.00;101094.91;5142675;27;20027;-47
2022/05/15 02:38:33;;;;;;;5.00;1.52;;;;;;;11.73;100.00;101102.44;5145929;27;20023;-49
2022/05/15 02:40:58;;;;;;;2.28;1.40;;;;;;;11.69;100.00;101095.00;5141054;27;20023;-50
2022/05/15 02:43:23;;;;;;;4.72;1.55;;;;;;;11.64;100.00;101095.59;5141555;27;20059;-50
2022/05/15 02:45:49;;;;;;;3.88;1.40;;;;;;;11.62;100.00;101091.47;5144852;27;20037;-52
2022/05/15 02:51:04;;;;;;;4.93;1.50;;;;;;;11.56;100.00;101090.34;5146902;27;20386;-52
2022/05/15 02:53:31;;;;;;;5.25;1.98;;;;;;;11.55;100.00;101083.38;5144213;27;20045;-48
2022/05/15 02:55:56;;;;;;;5.70;1.63;;;;;;;11.52;100.00;101076.59;5151991;27;20111;-51
2022/05/15 02:58:22;;;;;;;7.55;1.52;;;;;;;11.49;100.00;101068.19;5144164;27;20507;-52
2022/05/15 03:00:47;;;;;;;3.85;1.63;;;;;;;11.45;100.00;101056.28;5148536;27;20026;-50
2022/05/15 03:03:12;;;;;;;3.42;1.38;;;;;;;11.39;100.00;101057.84;5142906;27;20361;-51
2022/05/15 03:05:38;;;;;;;6.38;1.40;;;;;;;11.37;100.00;101059.03;5151837;27;20152;-51
2022/05/15 03:08:03;;;;;;;14.13;3.13;;;;;;;11.35;100.00;101054.69;5152448;27;20033;-52
2022/05/15 03:10:29;;;;;;;6.72;1.88;;;;;;;11.37;100.00;101062.50;5141447;27;20102;-52
2022/05/15 03:12:55;;;;;;;1.67;1.23;;;;;;;11.38;100.00;101063.31;5143287;27;20402;-51
2022/05/15 03:15:20;;;;;;;4.18;2.08;;;;;;;11.36;100.00;101058.19;5150432;27;20038;-49
2022/05/15 03:17:46;;;;;;;4.07;1.80;;;;;;;11.35;100.00;101064.50;5144747;27;20472;-49
2022/05/15 03:20:15;;;;;;;13.55;2.88;;;;;;;11.37;100.00;101069.63;5132831;27;20033;-48
2022/05/15 03:22:40;;;;;;;4.50;1.85;;;;;;;11.38;100.00;101088.03;5147305;27;20026;-50
2022/05/15 03:25:06;;;;;;;3.63;1.63;;;;;;;11.39;100.00;101107.47;5147229;27;20237;-50
2022/05/15 03:27:32;;;;;;;5.10;2.00;;;;;;;11.42;100.00;101105.25;5141095;27;20043;-47
2022/05/15 03:29:57;;;;;;;3.45;1.80;;;;;;;11.50;100.00;101107.00;5144670;27;20105;-48
2022/05/15 03:32:23;;;;;;;12.65;2.88;;;;;;;11.54;100.00;101101.16;5150121;27;20156;-47
2022/05/15 03:34:49;;;;;;;4.88;1.83;;;;;;;11.52;100.00;101100.50;5149552;27;20030;-47
2022/05/15 03:37:14;;;;;;;4.85;2.00;;;;;;;11.47;100.00;101104.72;5147465;27;20226;-48
2022/05/15 03:39:40;;;;;;;4.72;2.13;;;;;;;11.42;100.00;101105.25;5148956;27;20030;-48
2022/05/15 03:42:05;;;;;;;7.25;1.83;;;;;;;11.32;100.00;101100.19;5149225;27;20026;-50
2022/05/15 03:44:30;;;;;;;7.38;2.58;;;;;;;11.24;100.00;101100.28;5151646;27;20027;-51
2022/05/15 03:46:56;;;;;;;4.95;2.58;;;;;;;11.16;100.00;101096.88;5144907;27;20099;-52
2022/05/15 03:49:21;;;;;;;7.38;1.35;;;;;;;11.07;100.00;101102.25;5137417;27;20126;-48
2022/05/15 03:51:46;;;;;;;2.70;2.38;;;;;;;11.02;100.00;101099.31;5149269;27;20027;-49
2022/05/15 03:54:12;;;;;;;5.93;1.77;;;;;;;10.99;100.00;101096.19;5143155;27;20034;-47
2022/05/15 03:56:50;;;;;;;7.45;3.17;;;;;;;10.94;100.00;101080.78;5144016;27;20018;-50
2022/05/15 03:59:19;;;;;;;3.83;2.30;;;;;;;10.91;100.00;101078.50;5123667;27;20410;-49
2022/05/15 04:01:45;;;;;;;10.52;3.67;;;;;;;10.88;100.00;101073.56;5149209;27;20094;-52
2022/05/15 04:04:10;;;;;;;5.55;2.17;;;;;;;10.91;100.00;101067.91;5139102;27;20105;-47
2022/05/15 04:06:36;;;;;;;3.33;2.03;;;;;;;10.90;100.00;101045.84;5147964;27;20030;-45
2022/05/15 04:09:02;;;;;;;8.45;2.92;;;;;;;10.87;100.00;101051.53;5146782;27;20023;-47
2022/05/15 04:11:29;;;;;;;8.55;2.42;;;;;;;10.88;100.00;101039.06;5143565;27;20510;-44
2022/05/15 04:13:54;;;;;;;9.60;2.90;;;;;;;10.89;100.00;101030.94;5140505;27;20027;-47
2022/05/15 04:16:19;;;;;;;4.88;3.05;;;;;;;10.91;100.00;101036.06;5147149;27;20030;-45
2022/05/15 04:18:45;;;;;;;6.80;3.42;;;;;;;10.94;100.00;101058.75;5142205;27;20125;-47
2022/05/15 04:21:10;;;;;;;8.70;3.80;;;;;;;10.97;100.00;101053.09;5145564;27;20115;-46
2022/05/15 04:23:36;;;;;;;9.00;2.80;;;;;;;10.99;100.00;101051.91;5134788;27;20072;-47
2022/05/15 04:26:01;;;;;;;6.43;2.72;;;;;;;11.02;100.00;101038.28;5143425;27;20027;-45
2022/05/15 04:28:27;;;;;;;5.78;2.83;;;;;;;11.02;100.00;101027.69;5146686;27;20042;-48
2022/05/15 04:30:52;;;;;;;9.45;3.25;;;;;;;11.03;100.00;101037.28;5149387;27;20049;-46
2022/05/15 04:33:17;;;;;;;7.75;2.78;;;;;;;11.02;100.00;101024.19;5134653;27;20507;-46
2022/05/15 04:35:43;;;;;;;9.13;3.67;;;;;;;11.00;100.00;101005.81;5142974;27;20051;-48
2022/05/15 04:38:09;;;;;;;13.15;3.25;;;;;;;10.99;100.00;100993.53;5148665;27;20110;-44
2022/05/15 04:40:35;;;;;;;9.60;2.90;;;;;;;10.99;100.00;100998.00;5150982;27;20098;-46
2022/05/15 04:43:00;;;;;;;9.05;3.28;;;;;;;10.97;100.00;100994.72;5138788;27;20573;-46
2022/05/15 04:45:26;;;;;;;8.02;4.75;;;;;;;10.97;100.00;101002.66;5144583;27;20038;-46
2022/05/15 04:47:51;;;;;;;6.10;3.20;;;;;;;10.92;100.00;101008.53;5150842;27;20477;-45
2022/05/15 04:50:18;;;;;;;7.95;3.75;;;;;;;10.91;100.00;101017.50;5147556;27;20510;-49
2022/05/15 04:52:44;;;;;;;12.52;4.63;;;;;;;10.91;100.00;101017.50;5140064;27;20018;-48
2022/05/15 04:55:10;;;;;;;9.35;3.50;;;;;;;10.95;100.00;101024.09;5148307;27;20520;-47
2022/05/15 04:57:36;;;;;;;7.32;2.03;;;;;;;10.95;100.00;101029.41;5149829;27;20022;-47
2022/05/15 05:00:04;;;;;;;8.13;2.70;;;;;;;10.99;100.00;101035.16;5139454;27;20415;-46
2022/05/15 05:02:29;;;;;;;4.82;3.42;;;;;;;11.02;100.00;101032.13;5141162;27;20067;-46
2022/05/15 05:04:59;;;;;;;3.13;1.90;;;;;;;11.04;100.00;101038.91;5149742;27;20030;-44
2022/05/15 05:07:24;;;;;;;7.07;3.25;;;;;;;11.05;100.00;101035.28;5131593;27;20034;-46
2022/05/15 05:09:50;;;;;;;2.15;1.75;;;;;;;11.10;100.00;101037.38;5136390;27;20136;-47
2022/05/15 05:12:15;;;;;;;7.40;2.53;;;;;;;11.13;100.00;101021.09;5139219;27;20031;-47
2022/05/15 05:14:40;;;;;;;7.90;2.92;;;;;;;11.14;100.00;101015.59;5150114;27;20436;-46
2022/05/15 05:17:06;;;;;;;8.85;2.95;;;;;;;11.20;100.00;101007.91;5146277;27;20031;-48
2022/05/15 05:19:31;;;;;;;42.45;2.95;;;;;;;11.19;100.00;100998.31;5146690;27;20018;-48
2022/05/15 05:21:56;;;;;;;11.80;3.95;;;;;;;11.14;100.00;100998.84;5149420;27;20292;-52
2022/05/15 05:24:22;;;;;;;7.10;2.45;;;;;;;11.11;100.00;101002.69;5147626;27;20105;-45
2022/05/15 05:26:47;;;;;;;7.35;2.88;;;;;;;11.10;100.00;100998.41;5147222;27;20545;-47
2022/05/15 05:29:12;;;;;;;5.50;1.60;;;;;;;11.08;100.00;100984.50;5146961;27;20027;-45
2022/05/15 05:31:38;;;;;;;8.77;2.17;;;;;;;11.11;100.00;100991.25;5148064;27;20431;-47
2022/05/15 05:34:03;;;;;;;5.30;1.98;;;;;;;11.12;100.00;100999.03;5149713;27;20058;-47
2022/05/15 05:36:28;;;;;;;6.38;1.67;;;;;;;11.14;100.00;101007.63;5149004;27;20113;-47
2022/05/15 05:38:54;;;;;;;10.57;2.47;;;;;;;11.19;100.00;101015.06;5144118;27;20058;-50
2022/05/15 05:41:19;;;;;;;5.60;2.35;;;;;;;11.25;100.00;101014.31;5143495;27;20030;-52
2022/05/15 05:43:44;;;;;;;6.80;3.33;;;;;;;11.31;100.00;101015.44;5148343;27;20140;-49
2022/05/15 05:46:10;;;;;;;5.97;2.25;;;;;;;11.36;100.00;101007.75;5149436;27;20022;-48
2022/05/15 05:48:35;;;;;;;3.30;2.55;;;;;;;11.40;100.00;101006.38;5126506;27;20038;-46
2022/05/15 05:51:01;;;;;;;10.02;3.03;;;;;;;11.41;100.00;101008.03;5139054;27;20027;-47
2022/05/15 05:53:26;;;;;;;4.65;2.08;;;;;;;11.42;100.00;101020.28;5146409;27;20035;-45
2022/05/15 05:55:51;;;;;;;5.15;1.80;;;;;;;11.43;100.00;101015.78;5141641;27;20042;-46
2022/05/15 05:58:17;;;;;;;12.45;3.17;;;;;;;11.40;100.00;101022.28;5146709;27;20157;-46
2022/05/15 06:00:42;;;;;;;7.68;2.72;;;;;;;11.33;100.00;101013.41;5145950;27;20145;-47
2022/05/15 06:05:52;;;;;;;8.60;2.08;;;;;;;11.21;100.00;101034.28;5142018;27;20087;-45
2022/05/15 06:08:19;;;;;;;4.68;2.33;;;;;;;11.19;100.00;101038.13;5149098;27;20117;-47
2022/05/15 06:10:45;;;;;;;10.15;3.53;;;;;;;11.15;100.00;101032.34;5143706;27;20035;-46
2022/05/15 06:13:11;;;;;;;6.15;3.03;;;;;;;11.17;100.00;101040.13;5138611;27;20030;-47
2022/05/15 06:15:37;;;;;;;5.35;2.55;;;;;;;11.20;100.00;101045.06;5145595;27;20499;-48
2022/05/15 06:18:05;;;;;;;6.35;1.90;;;;;;;11.20;100.00;101047.72;5129461;27;20524;-47
2022/05/15 06:20:30;;;;;;;5.95;2.20;;;;;;;11.22;100.00;101049.19;5147126;27;20092;-46
2022/05/15 06:22:56;;;;;;;4.75;2.05;;;;;;;11.26;100.00;101052.34;5149299;27;20428;-46
2022/05/15 06:25:21;;;;;;;9.57;2.92;;;;;;;11.29;100.00;101046.66;5145402;27;20114;-47
2022/05/15 06:27:47;;;;;;;7.03;2.85;;;;;;;11.28;100.00;101044.97;5141886;27;20105;-51
2022/05/15 06:30:13;;;;;;;4.45;2.13;;;;;;;11.29;100.00;101050.13;5148743;27;20478;-46
2022/05/15 06:32:39;;;;;;;5.32;2.35;;;;;;;11.26;100.00;101050.50;5149529;27;20037;-46
2022/05/15 06:35:10;;;;;;;3.90;2.78;;;;;;;11.31;100.00;101039.34;5148524;27;20058;-46
2022/05/15 06:37:35;;;;;;;10.75;2.72;;;;;;;11.38;100.00;101031.44;5148458;27;20023;-48
2022/05/15 06:40:01;;;;;;;6.90;2.65;;;;;;;11.42;100.00;101016.81;5146038;27;20071;-45
2022/05/15 06:42:28;;;;;;;3.20;2.63;;;;;;;11.42;100.00;101011.50;5148348;27;20026;-45
2022/05/15 06:44:54;;;;;;;11.75;3.53;;;;;;;11.39;100.00;100993.28;5148242;27;20084;-46
2022/05/15 06:47:19;;;;;;;8.88;1.95;;;;;;;11.38;100.00;101003.06;5143257;27;20104;-46
2022/05/15 06:49:45;;;;;;;4.68;2.33;;;;;;;11.40;100.00;100979.81;5146060;27;20019;-46
2022/05/15 06:52:10;;;;;;;4.40;2.47;;;;;;;11.48;100.00;100977.06;5147004;27;20027;-47
2022/05/15 06:54:35;;;;;;;8.27;2.22;;;;;;;11.54;100.00;100971.03;5148195;27;20025;-44
2022/05/15 06:59:44;;;;;;;7.70;3.30;;;;;;;11.68;100.00;100949.94;5145875;27;20037;-46
2022/05/15 07:02:11;;;;;;;4.68;2.10;;;;;;;11.74;100.00;100941.19;5148795;27;20395;-46
2022/05/15 07:04:36;;;;;;;11.50;2.97;;;;;;;11.81;100.00;100934.13;5147360;27;20026;-49
2022/05/15 07:07:03;;;;;;;9.15;3.38;;;;;;;11.88;100.00;100921.78;5148535;27;20037;-47
2022/05/15 07:09:29;;;;;;;11.55;2.75;;;;;;;11.98;100.00;100922.28;5150086;27;20107;-45
2022/05/15 07:11:55;;;;;;;5.88;2.53;;;;;;;12.16;100.00;100924.50;5148625;27;20049;-44
2022/05/15 07:14:20;;;;;;;7.47;2.78;;;;;;;12.37;100.00;100923.66;5148933;27;20035;-46
2022/05/15 07:16:46;;;;;;;8.93;3.90;;;;;;;12.64;100.00;100913.22;5150756;27;20226;-44
2022/05/15 07:19:11;;;;;;;10.20;3.67;;;;;;;12.84;100.00;100913.38;5150173;27;20026;-48
2022/05/15 07:21:37;;;;;;;7.88;3.50;;;;;;;12.99;100.00;100889.31;5146920;27;20030;-44
2022/05/15 07:24:02;;;;;;;7.30;3.78;;;;;;;13.04;100.00;100885.03;5149199;27;20114;-47
2022/05/15 07:26:27;;;;;;;7.53;3.17;;;;;;;13.09;100.00;100884.44;5148875;27;20023;-47
2022/05/15 07:28:53;;;;;;;11.00;3.20;;;;;;;13.04;100.00;100881.53;5142332;27;20114;-45
2022/05/15 07:31:20;;;;;;;6.78;2.97;;;;;;;12.95;100.00;100896.84;5142430;27;20062;-50
2022/05/15 07:33:46;;;;;;;8.00;3.88;;;;;;;12.87;100.00;100892.50;5142015;27;20072;-48
2022/05/15 07:36:12;;;;;;;5.18;2.78;;;;;;;12.86;100.00;100884.72;5136723;27;20071;-51
2022/05/15 07:38:37;;;;;;;11.93;5.05;;;;;;;12.93;100.00;100890.06;5134442;27;20062;-46
2022/05/15 07:41:03;;;;;;;9.43;2.90;;;;;;;12.97;100.00;100897.47;5131746;27;20061;-46
2022/05/15 07:43:29;;;;;;;5.28;2.50;;;;;;;13.01;100.00;100895.22;5144495;27;20042;-49
2022/05/15 07:45:54;;;;;;;12.85;4.72;;;;;;;13.07;100.00;100897.13;5144309;27;20034;-46
2022/05/15 07:48:20;;;;;;;11.70;4.32;;;;;;;13.12;100.00;100894.69;5147678;27;20471;-48
2022/05/15 07:50:45;;;;;;;9.15;3.05;;;;;;;13.17;100.00;100894.91;5144111;27;20023;-47
2022/05/15 07:53:11;;;;;;;12.93;3.22;;;;;;;13.25;100.00;100902.72;5146943;27;20049;-48
2022/05/15 07:55:37;;;;;;;10.48;4.90;;;;;;;13.34;100.00;100906.06;5144973;27;20034;-49
2022/05/15 07:58:02;;;;;;;13.90;5.07;;;;;;;13.46;100.00;100896.50;5146768;27;20022;-46
2022/05/15 08:00:28;;;;;;;17.00;3.60;;;;;;;13.65;100.00;100894.91;5143639;27;20031;-47
2022/05/15 08:03:04;;;;;;;10.77;4.00;;;;;;;13.95;100.00;100892.72;5146476;27;20371;-48
2022/05/15 08:08:14;;;;;;;9.82;4.68;;;;;;;14.24;100.00;100904.00;5143794;27;20058;-48
2022/05/15 08:10:41;;;;;;;11.02;3.80;;;;;;;14.24;100.00;100893.34;5141050;27;20031;-47
2022/05/15 08:13:08;;;;;;;9.90;3.75;;;;;;;14.27;100.00;100892.94;5144660;27;20022;-45
2022/05/15 08:15:33;;;;;;;12.60;5.22;;;;;;;14.34;100.00;100880.41;5114798;27;20463;-48
2022/05/15 08:23:34;;;;;;;7.65;2.95;;;;;;;14.85;100.00;100894.16;5142759;27;20080;-46
2022/05/15 08:26:00;;;;;;;18.85;4.40;;;;;;;14.97;100.00;100887.97;5142173;27;20034;-48
2022/05/15 08:28:26;;;;;;;10.27;4.07;;;;;;;15.11;100.00;100877.22;5142659;27;20038;-48
2022/05/15 08:30:51;;;;;;;19.20;4.97;;;;;;;15.22;100.00;100863.19;5143919;27;20033;-51
2022/05/15 08:33:17;;;;;;;9.25;3.88;;;;;;;15.36;100.00;100862.13;5138836;27;20026;-48
2022/05/15 08:35:43;;;;;;;13.80;4.18;;;;;;;15.41;100.00;100840.94;5120046;27;20031;-47
2022/05/15 08:38:08;;;;;;;8.90;4.45;;;;;;;15.51;100.00;100837.78;5138982;27;20041;-47
2022/05/15 08:40:49;;;;;;;11.55;4.47;;;;;;;15.72;100.00;100839.34;5141361;27;20022;-50
2022/05/15 08:43:18;;;;;;;11.32;4.13;;;;;;;15.90;100.00;100833.22;5143705;27;20047;-48
2022/05/15 08:45:58;;;;;;;9.88;4.47;;;;;;;15.93;100.00;100835.47;5140442;27;20056;-47
2022/05/15 08:48:26;;;;;;;10.90;4.45;;;;;;;15.87;100.00;100823.78;5138269;27;20039;-48
2022/05/15 08:50:54;;;;;;;10.10;5.10;;;;;;;15.87;100.00;100841.69;5145315;27;20022;-47
2022/05/15 08:53:33;;;;;;;7.95;3.58;;;;;;;15.85;100.00;100833.88;5145562;27;20523;-48
2022/05/15 08:56:00;;;;;;;13.63;4.90;;;;;;;15.85;100.00;100833.03;5142465;27;20034;-47
2022/05/15 08:58:56;;;;;;;13.50;4.28;;;;;;;15.74;100.00;100820.38;5145288;27;20484;-46
2022/05/15 09:01:26;;;;;;;10.68;4.03;;;;;;;15.63;100.00;100825.38;5116245;27;20039;-48
2022/05/15 09:03:54;;;;;;;12.23;4.00;;;;;;;15.54;100.00;100824.00;5143622;27;20384;-47
2022/05/15 09:06:22;;;;;;;8.38;4.35;;;;;;;15.48;100.00;100825.66;5140938;27;20046;-51
2022/05/15 09:09:05;;;;;;;10.57;4.13;;;;;;;15.37;100.00;100826.34;5137613;27;20034;-45
2022/05/15 09:11:55;;;;;;;7.28;3.33;;;;;;;15.31;100.00;100813.00;5140165;27;20425;-48
2022/05/15 09:14:45;;;;;;;15.18;4.43;;;;;;;15.29;100.00;100815.91;5141483;27;20446;-46
2022/05/15 09:17:51;;;;;;;11.32;3.15;;;;;;;15.33;100.00;100813.63;5143651;27;20031;-48
2022/05/15 09:20:48;;;;;;;8.98;4.50;;;;;;;15.40;100.00;100809.88;5143204;27;20546;-48
2022/05/15 09:23:34;;;;;;;9.27;3.60;;;;;;;15.58;100.00;100803.00;5132090;27;20526;-51
2022/05/15 09:26:05;;;;;;;9.55;3.30;;;;;;;15.85;100.00;100804.47;5142525;27;20035;-49
2022/05/15 09:28:41;;;;;;;9.60;3.70;;;;;;;16.01;100.00;100795.09;5138716;27;20077;-48
2022/05/15 09:31:29;;;;;;;8.43;3.42;;;;;;;16.17;100.00;100782.19;5139332;27;20496;-46
2022/05/15 09:34:08;;;;;;;13.35;5.57;;;;;;;16.41;100.00;100780.50;5146063;27;20061;-48
2022/05/15 09:36:33;;;;;;;13.98;6.15;;;;;;;16.52;100.00;100777.06;5141348;27;20352;-48
2022/05/15 09:39:24;;;;;;;12.93;4.70;;;;;;;16.58;100.00;100762.81;5143062;27;20521;-48
2022/05/15 09:45:25;;;;;;;12.05;3.88;;;;;;;17.11;100.00;100759.47;5141987;27;20041;-48
2022/05/15 09:47:51;;;;;;;13.02;4.75;;;;;;;17.29;100.00;100765.84;5143519;27;20356;-47
2022/05/15 09:50:38;;;;;;;11.23;3.35;;;;;;;17.37;100.00;100769.03;5141711;27;20383;-48
2022/05/15 09:53:21;;;;;;;9.85;3.45;;;;;;;17.40;100.00;100767.75;5142327;27;20230;-50
2022/05/15 09:56:01;;;;;;;10.38;2.97;;;;;;;17.57;100.00;100752.63;5138448;27;20045;-48
2022/05/15 09:58:36;;;;;;;10.82;4.25;;;;;;;17.72;100.00;100751.38;5140524;27;20031;-47
2022/05/15 10:01:16;;;;;;;4.60;2.10;;;;;;;17.86;100.00;100763.53;5138404;27;20547;-48
2022/05/15 10:03:48;;;;;;;6.93;2.65;;;;;;;18.00;100.00;100759.59;5142571;27;20031;-49
2022/05/15 10:06:19;;;;;;;9.00;3.33;;;;;;;18.05;100.00;100759.69;5143191;27;20069;-47
2022/05/15 10:08:45;;;;;;;;;;;;;;;18.17;100.00;100756.19;5143804;27;20030;-45
2022/05/15 10:11:17;;;;;;;11.05;2.90;;;;;;;18.37;100.00;100766.56;5131999;27;19919;-48
2022/05/15 10:13:43;;;;;;;9.75;3.33;;;;;;;18.36;100.00;100760.38;5130672;27;20114;-46
2022/05/15 10:16:18;;;;;;;13.48;3.17;;;;;;;18.31;100.00;100768.31;5129981;27;20038;-53
2022/05/15 10:18:52;;;;;;;5.72;2.10;;;;;;;18.17;100.00;100769.59;5138158;27;20026;-45
2022/05/15 10:21:19;;;;;;;8.55;2.58;;;;;;;18.04;100.00;100773.34;5129995;27;20110;-48
2022/05/15 10:23:57;;;;;;;9.63;3.92;;;;;;;17.94;100.00;100768.56;5142550;27;20027;-44
2022/05/15 10:26:32;;;;;;;12.50;3.65;;;;;;;17.79;100.00;100771.69;5122740;27;20035;-48
2022/05/15 10:29:11;;;;;;;8.40;3.05;;;;;;;17.75;100.00;100775.03;5138666;27;20030;-48
2022/05/15 10:31:48;;;;;;;16.13;3.97;;;;;;;17.78;100.00;100779.94;5131789;27;20743;-47
2022/05/15 10:34:21;;;;;;;12.13;3.45;;;;;;;17.83;100.00;100786.25;5136131;27;20575;-48
2022/05/15 10:37:08;;;;;;;9.80;2.58;;;;;;;18.03;100.00;100799.34;5135118;27;20083;-50
2022/05/15 10:39:40;;;;;;;12.13;2.92;;;;;;;18.20;100.00;100814.75;5139746;27;20088;-46
2022/05/15 10:42:28;;;;;;;5.50;2.40;;;;;;;18.38;100.00;100803.91;5140179;27;20050;-50
2022/05/15 10:45:15;;;;;;;11.35;3.20;;;;;;;18.58;100.00;100806.19;5136560;27;20061;-47
2022/05/15 10:48:10;;;;;;;4.70;2.55;;;;;;;18.67;100.00;100807.47;5142364;27;20042;-47
2022/05/15 10:51:04;;;;;;;12.45;3.65;;;;;;;18.69;100.00;100809.91;5119764;27;20082;-46
2022/05/15 10:57:21;;;;;;;8.85;3.35;;;;;;;18.87;100.00;100799.06;5143778;27;20073;-48
2022/05/15 11:00:00;;;;;;;11.68;3.20;;;;;;;18.81;100.00;100813.44;5140060;27;20053;-48
2022/05/15 11:02:45;;;;;;;13.25;2.72;;;;;;;18.82;100.00;100823.13;5136911;27;20061;-50
2022/05/15 11:05:37;;;;;;;8.00;3.72;;;;;;;18.87;100.00;100823.25;5142562;27;20045;-51
2022/05/15 11:08:40;;;;;;;20.70;3.53;;;;;;;18.77;100.00;100820.34;5144186;27;20027;-49
2022/05/15 11:11:17;;;;;;;6.97;2.85;;;;;;;18.60;100.00;100809.47;5143512;27;20039;-47
2022/05/15 11:13:47;;;;;;;13.35;3.88;;;;;;;18.61;100.00;100821.03;5143295;27;20027;-49
2022/05/15 11:16:34;;;;;;;13.30;3.63;;;;;;;18.66;100.00;100829.19;5125448;27;20031;-47
2022/05/15 11:38:46;;;;;;;5.18;2.50;;;;;;;18.04;100.00;100832.34;5136174;27;20177;-47
2022/05/15 11:41:33;;;;;;;9.00;3.35;;;;;;;17.88;100.00;100836.53;5137078;27;20384;-49
2022/05/15 11:44:00;;;;;;;3.05;2.22;;;;;;;17.76;100.00;100836.50;5138598;27;20418;-47
2022/05/15 11:46:49;;;;;;;4.57;1.80;;;;;;;17.56;100.00;100839.47;5134631;27;20027;-49
2022/05/15 11:49:32;;;;;;;5.18;1.23;;;;;;;17.21;100.00;100850.84;5131252;27;20110;-51
2022/05/15 11:52:03;;;;;;;5.55;1.00;;;;;;;16.86;100.00;100844.50;5141268;27;20023;-50
2022/05/15 11:54:33;;;;;;;3.05;1.42;;;;;;;16.61;100.00;100855.25;5137619;27;20067;-49
2022/05/15 11:57:00;;;;;;;4.70;0.93;;;;;;;16.34;100.00;100867.03;5125447;27;20038;-51
2022/05/15 11:59:32;;;;;;;2.63;0.73;;;;;;;16.17;100.00;100855.22;5144212;27;20041;-50
2022/05/15 12:01:59;;;;;;;7.90;1.73;;;;;;;15.97;100.00;100851.91;5148189;27;20106;-53
2022/05/15 12:04:33;;;;;;;8.40;2.25;;;;;;;15.73;100.00;100848.97;5145433;27;20476;-49
2022/05/15 12:06:59;;;;;;;3.55;1.35;;;;;;;15.59;100.00;100858.91;5129487;27;20026;-47